createdAt,value
2022-11-28T00:01:52.553Z,6.30
2022-11-28T00:04:21.625Z,6.30
2022-11-28T00:06:56.990Z,6.30
2022-11-28T00:09:26.199Z,6.30
2022-11-28T00:11:56.072Z,6.30
2022-11-28T00:14:27.247Z,6.30
2022-11-28T00:17:00.209Z,6.30
2022-11-28T00:19:29.708Z,6.30
2022-11-28T00:21:58.734Z,6.30
2022-11-28T00:24:29.259Z,6.30
2022-11-28T00:27:01.451Z,6.20
2022-11-28T00:29:29.365Z,6.20
2022-11-28T00:31:59.007Z,6.00
2022-11-28T00:34:26.841Z,6.00
2022-11-28T00:36:56.659Z,5.90
2022-11-28T00:39:26.475Z,6.00
2022-11-28T00:41:57.247Z,6.00
2022-11-28T00:44:26.704Z,5.90
2022-11-28T00:46:53.866Z,5.80
2022-11-28T00:49:24.971Z,5.80
2022-11-28T00:51:53.300Z,5.80
2022-11-28T00:54:23.970Z,5.90
2022-11-28T00:56:56.632Z,5.90
2022-11-28T00:59:29.634Z,5.90
2022-11-28T01:01:58.575Z,5.90
2022-11-28T01:04:28.223Z,5.90
2022-11-28T01:07:01.059Z,5.90
2022-11-28T01:09:32.927Z,6.00
2022-11-28T01:12:03.275Z,5.90
2022-11-28T01:14:32.532Z,5.90
2022-11-28T01:17:03.338Z,5.70
2022-11-28T01:19:33.989Z,5.70
2022-11-28T01:22:01.066Z,5.60
2022-11-28T01:24:33.761Z,5.60
2022-11-28T01:27:07.424Z,5.60
2022-11-28T01:29:43.803Z,5.50
2022-11-28T01:32:11.658Z,5.50
2022-11-28T01:34:43.326Z,5.60
2022-11-28T01:37:13.918Z,5.60
2022-11-28T01:39:43.470Z,5.60
2022-11-28T01:42:24.878Z,5.60
2022-11-28T01:45:29.036Z,5.70
2022-11-28T01:48:02.163Z,5.70
2022-11-28T01:50:33.103Z,5.70
2022-11-28T01:53:04.738Z,5.70
2022-11-28T01:55:37.993Z,5.60
2022-11-28T01:58:08.662Z,5.60
2022-11-28T02:00:36.063Z,5.60
2022-11-28T02:03:21.090Z,5.70
2022-11-28T02:05:50.356Z,5.60
2022-11-28T02:08:21.131Z,5.60
2022-11-28T02:11:19.348Z,5.70
2022-11-28T02:14:12.970Z,5.70
2022-11-28T02:17:14.417Z,5.70
2022-11-28T02:20:40.611Z,5.70
2022-11-28T02:23:38.793Z,5.70
2022-11-28T02:26:48.940Z,5.70
2022-11-28T02:29:40.898Z,5.70
2022-11-28T02:32:47.602Z,5.80
2022-11-28T02:35:44.806Z,5.80
2022-11-28T02:38:36.910Z,5.80
2022-11-28T02:41:41.111Z,5.70
2022-11-28T02:44:47.040Z,5.70
2022-11-28T02:47:18.224Z,5.70
2022-11-28T02:50:18.283Z,5.70
2022-11-28T02:53:07.742Z,5.70
2022-11-28T02:55:44.344Z,5.70
2022-11-28T02:58:16.725Z,5.50
2022-11-28T03:00:47.424Z,5.50
2022-11-28T03:03:47.198Z,5.50
2022-11-28T03:06:47.083Z,5.60
2022-11-28T03:09:37.953Z,5.50
2022-11-28T03:12:51.086Z,5.60
2022-11-28T03:15:33.273Z,5.50
2022-11-28T03:18:55.784Z,5.50
2022-11-28T03:21:37.196Z,5.50
2022-11-28T03:27:21.356Z,5.50
2022-11-28T03:29:57.793Z,5.50
2022-11-28T03:32:42.947Z,5.50
2022-11-28T03:35:22.066Z,5.50
2022-11-28T03:37:57.705Z,5.50
2022-11-28T03:40:38.159Z,5.50
2022-11-28T03:43:21.276Z,5.50
2022-11-28T03:45:56.139Z,5.50
2022-11-28T03:48:32.741Z,5.50
2022-11-28T03:51:47.442Z,5.60
2022-11-28T03:54:57.579Z,5.60
2022-11-28T03:57:40.505Z,5.60
2022-11-28T04:00:16.897Z,5.50
2022-11-28T04:03:25.696Z,5.50
2022-11-28T04:06:05.371Z,5.40
2022-11-28T04:08:46.073Z,5.40
2022-11-28T04:11:54.466Z,5.40
2022-11-28T04:14:44.067Z,5.40
2022-11-28T04:17:34.449Z,5.40
2022-11-28T04:20:14.868Z,5.40
2022-11-28T04:22:55.552Z,5.40
2022-11-28T04:25:29.768Z,5.40
2022-11-28T04:28:11.385Z,5.40
2022-11-28T04:30:41.143Z,5.50
2022-11-28T04:33:16.117Z,5.50
2022-11-28T04:35:59.094Z,5.50
2022-11-28T04:38:32.925Z,5.50
2022-11-28T04:41:08.312Z,5.40
2022-11-28T04:43:47.460Z,5.50
2022-11-28T04:46:26.178Z,5.40
2022-11-28T04:48:53.765Z,5.40
2022-11-28T04:51:56.852Z,5.30
2022-11-28T04:54:57.613Z,5.20
2022-11-28T04:57:45.830Z,5.30
2022-11-28T05:00:20.511Z,5.20
2022-11-28T05:02:55.907Z,5.30
2022-11-28T05:05:26.698Z,5.20
2022-11-28T05:07:58.440Z,5.20
2022-11-28T05:10:29.201Z,5.30
2022-11-28T05:13:02.004Z,5.30
2022-11-28T05:15:31.512Z,5.30
2022-11-28T05:17:59.706Z,5.40
2022-11-28T05:20:32.505Z,5.40
2022-11-28T05:23:00.557Z,5.50
2022-11-28T05:25:34.838Z,5.50
2022-11-28T05:28:04.429Z,5.50
2022-11-28T05:30:33.879Z,5.50
2022-11-28T05:33:03.167Z,5.50
2022-11-28T05:35:32.889Z,5.50
2022-11-28T05:38:03.392Z,5.50
2022-11-28T05:40:36.371Z,5.50
2022-11-28T05:43:03.568Z,5.40
2022-11-28T05:45:34.752Z,5.40
2022-11-28T05:48:03.659Z,5.40
2022-11-28T05:50:35.754Z,5.40
2022-11-28T05:53:12.752Z,5.40
2022-11-28T05:55:42.216Z,5.30
2022-11-28T05:58:11.604Z,5.40
2022-11-28T06:00:40.025Z,5.40
2022-11-28T06:03:11.974Z,5.40
2022-11-28T06:05:43.956Z,5.40
2022-11-28T06:08:13.174Z,5.40
2022-11-28T06:10:42.033Z,5.40
2022-11-28T06:13:12.489Z,5.30
2022-11-28T06:15:48.636Z,5.30
2022-11-28T06:18:19.809Z,5.30
2022-11-28T06:20:52.643Z,5.30
2022-11-28T06:23:23.012Z,5.30
2022-11-28T06:25:50.692Z,5.40
2022-11-28T06:28:21.244Z,5.30
2022-11-28T06:30:48.713Z,5.30
2022-11-28T06:33:17.854Z,5.30
2022-11-28T06:35:45.376Z,5.40
2022-11-28T06:38:14.401Z,5.40
2022-11-28T06:40:49.335Z,5.40
2022-11-28T06:43:24.180Z,5.40
2022-11-28T06:45:55.157Z,5.40
2022-11-28T06:48:29.255Z,5.40
2022-11-28T06:51:07.580Z,5.50
2022-11-28T06:53:41.384Z,5.50
2022-11-28T06:56:16.099Z,5.50
2022-11-28T06:58:46.944Z,5.50
2022-11-28T07:01:22.620Z,5.50
2022-11-28T07:03:51.206Z,5.50
2022-11-28T07:06:24.838Z,5.50
2022-11-28T07:08:56.261Z,5.50
2022-11-28T07:11:28.585Z,5.60
2022-11-28T07:13:58.667Z,5.50
2022-11-28T07:16:35.315Z,5.60
2022-11-28T07:19:03.551Z,5.70
2022-11-28T07:21:34.790Z,5.70
2022-11-28T07:24:06.437Z,5.70
2022-11-28T07:26:41.067Z,5.70
2022-11-28T07:29:14.314Z,5.80
2022-11-28T07:31:44.563Z,5.90
2022-11-28T07:34:16.638Z,5.90
2022-11-28T07:36:46.802Z,5.90
2022-11-28T07:39:18.218Z,5.90
2022-11-28T07:41:47.145Z,5.90
2022-11-28T07:44:19.579Z,6.00
2022-11-28T07:46:52.562Z,6.00
2022-11-28T07:49:22.669Z,5.90
2022-11-28T07:51:52.564Z,6.00
2022-11-28T07:54:24.223Z,6.00
2022-11-28T07:59:42.507Z,6.00
2022-11-28T08:02:16.461Z,6.00
2022-11-28T08:04:55.249Z,6.00
2022-11-28T08:07:26.535Z,6.00
2022-11-28T08:09:55.353Z,6.00
2022-11-28T08:12:26.163Z,6.00
2022-11-28T08:14:56.159Z,6.00
2022-11-28T08:17:26.155Z,6.00
2022-11-28T08:19:53.527Z,6.10
2022-11-28T08:22:28.259Z,6.10
2022-11-28T08:25:01.218Z,6.20
2022-11-28T08:27:37.894Z,6.20
2022-11-28T08:30:10.482Z,6.20
2022-11-28T08:32:42.257Z,6.30
2022-11-28T08:35:12.351Z,6.40
2022-11-28T08:37:44.301Z,6.50
2022-11-28T08:40:17.534Z,6.60
2022-11-28T08:42:45.670Z,6.70
2022-11-28T08:45:19.203Z,6.80
2022-11-28T08:47:49.325Z,6.90
2022-11-28T08:50:18.878Z,7.00
2022-11-28T08:52:50.555Z,7.10
2022-11-28T08:55:31.730Z,7.10
2022-11-28T08:58:04.878Z,7.10
2022-11-28T09:00:37.329Z,6.90
2022-11-28T09:03:09.931Z,6.90
2022-11-28T09:05:37.969Z,7.00
2022-11-28T09:08:11.642Z,7.10
2022-11-28T09:10:46.619Z,7.20
2022-11-28T09:13:18.256Z,7.20
2022-11-28T09:15:50.060Z,7.20
2022-11-28T09:18:23.349Z,7.20
2022-11-28T09:21:11.879Z,7.30
2022-11-28T09:23:43.601Z,7.40
2022-11-28T09:26:13.760Z,7.30
2022-11-28T09:28:41.904Z,7.30
2022-11-28T09:31:10.751Z,7.30
2022-11-28T09:33:42.635Z,7.30
2022-11-28T09:36:18.082Z,7.40
2022-11-28T09:38:51.625Z,7.40
2022-11-28T09:41:41.569Z,7.50
2022-11-28T09:44:34.892Z,7.50
2022-11-28T09:47:11.680Z,7.50
2022-11-28T09:49:56.102Z,7.50
2022-11-28T09:52:47.519Z,7.50
2022-11-28T09:55:33.112Z,7.50
2022-11-28T09:58:26.721Z,7.60
2022-11-28T10:01:38.033Z,7.60
2022-11-28T10:04:20.470Z,7.70
2022-11-28T10:07:18.267Z,7.70
2022-11-28T10:10:15.915Z,7.60
2022-11-28T10:13:59.908Z,7.70
2022-11-28T10:16:41.974Z,7.70
2022-11-28T10:19:55.361Z,7.70
2022-11-28T10:22:32.614Z,7.70
2022-11-28T10:25:23.500Z,7.70
2022-11-28T10:27:53.114Z,7.70
2022-11-28T10:30:34.408Z,7.80
2022-11-28T10:33:20.123Z,7.80
2022-11-28T10:36:01.315Z,7.80
2022-11-28T10:38:45.046Z,7.90
2022-11-28T10:41:34.978Z,7.90
2022-11-28T10:44:26.341Z,7.90
2022-11-28T10:47:08.053Z,7.90
2022-11-28T10:50:04.243Z,7.90
2022-11-28T10:53:19.216Z,7.90
2022-11-28T10:56:11.202Z,7.90
2022-11-28T10:58:58.265Z,7.90
2022-11-28T11:01:39.531Z,7.90
2022-11-28T11:04:20.207Z,7.80
2022-11-28T11:07:29.544Z,7.90
2022-11-28T11:10:28.175Z,7.90
2022-11-28T11:13:27.937Z,7.90
2022-11-28T11:16:15.151Z,7.90
2022-11-28T11:18:53.734Z,7.90
2022-11-28T11:21:31.999Z,7.90
2022-11-28T11:24:33.468Z,8.00
2022-11-28T11:27:17.694Z,8.10
2022-11-28T11:29:46.621Z,8.20
2022-11-28T11:32:33.064Z,8.20
2022-11-28T11:35:04.619Z,8.30
2022-11-28T11:37:36.452Z,8.40
2022-11-28T11:40:36.185Z,8.40
2022-11-28T11:43:03.984Z,8.50
2022-11-28T11:45:38.636Z,8.50
2022-11-28T11:48:08.491Z,8.50
2022-11-28T11:50:39.659Z,8.50
2022-11-28T11:53:21.145Z,8.50
2022-11-28T11:56:01.401Z,8.40
2022-11-28T11:58:47.426Z,8.40
2022-11-28T12:01:17.800Z,8.40
2022-11-28T12:04:37.062Z,8.40
2022-11-28T12:07:04.806Z,8.30
2022-11-28T12:09:55.131Z,8.20
2022-11-28T12:12:35.820Z,8.30
2022-11-28T12:15:07.055Z,8.30
2022-11-28T12:18:08.018Z,8.40
2022-11-28T12:21:08.739Z,8.40
2022-11-28T12:23:54.548Z,8.30
2022-11-28T12:26:44.572Z,8.40
2022-11-28T12:30:01.128Z,8.50
2022-11-28T12:32:53.982Z,8.50
2022-11-28T12:35:40.091Z,8.50
2022-11-28T12:38:32.110Z,8.60
2022-11-28T12:41:11.440Z,8.60
2022-11-28T12:44:11.851Z,8.90
2022-11-28T12:46:51.394Z,9.50
2022-11-28T12:49:37.615Z,11.30
2022-11-28T12:52:35.978Z,13.50
2022-11-28T12:55:40.414Z,15.40
2022-11-28T12:58:36.474Z,15.30
2022-11-28T13:01:36.794Z,14.50
2022-11-28T13:04:41.851Z,13.50
2022-11-28T13:07:35.190Z,12.40
2022-11-28T13:10:38.994Z,11.80
2022-11-28T13:13:29.851Z,11.40
2022-11-28T13:16:09.273Z,10.70
2022-11-28T13:18:48.320Z,10.30
2022-11-28T13:21:34.559Z,10.10
2022-11-28T13:24:51.520Z,10.10
2022-11-28T13:28:11.640Z,10.00
2022-11-28T13:30:58.364Z,9.50
2022-11-28T13:34:08.541Z,9.30
2022-11-28T13:40:37.722Z,8.90
2022-11-28T13:43:47.483Z,8.80
2022-11-28T13:46:18.894Z,8.70
2022-11-28T13:51:43.331Z,8.50
2022-11-28T13:54:32.337Z,8.40
2022-11-28T13:57:25.330Z,8.30
2022-11-28T14:00:25.387Z,8.30
2022-11-28T14:02:58.306Z,8.30
2022-11-28T14:05:41.589Z,8.30
2022-11-28T14:08:46.167Z,8.30
2022-11-28T14:11:43.212Z,8.20
2022-11-28T14:14:32.594Z,8.20
2022-11-28T14:17:29.587Z,8.30
2022-11-28T14:20:29.197Z,8.30
2022-11-28T14:23:23.207Z,8.30
2022-11-28T14:25:54.866Z,8.20
2022-11-28T14:28:47.856Z,8.20
2022-11-28T14:31:40.314Z,8.10
2022-11-28T14:34:49.881Z,8.10
2022-11-28T14:37:39.654Z,8.10
2022-11-28T14:40:59.902Z,8.10
2022-11-28T14:43:44.884Z,8.10
2022-11-28T14:46:30.679Z,8.10
2022-11-28T14:49:12.823Z,8.10
2022-11-28T14:52:09.872Z,8.20
2022-11-28T14:54:48.578Z,8.10
2022-11-28T14:57:22.146Z,8.10
2022-11-28T14:59:53.654Z,8.00
2022-11-28T15:02:57.641Z,8.10
2022-11-28T15:05:46.623Z,8.10
2022-11-28T15:08:32.594Z,8.10
2022-11-28T15:11:22.142Z,8.10
2022-11-28T15:14:05.789Z,8.00
2022-11-28T15:16:36.931Z,8.00
2022-11-28T15:19:18.032Z,7.90
2022-11-28T15:21:51.524Z,7.90
2022-11-28T15:24:38.504Z,7.80
2022-11-28T15:27:27.071Z,7.80
2022-11-28T15:30:01.640Z,7.70
2022-11-28T15:32:33.234Z,7.70
2022-11-28T15:35:11.069Z,7.60
2022-11-28T15:37:50.621Z,7.50
2022-11-28T15:40:22.538Z,7.50
2022-11-28T15:42:55.326Z,7.50
2022-11-28T15:45:36.106Z,7.40
2022-11-28T15:48:09.346Z,7.40
2022-11-28T15:50:37.419Z,7.40
2022-11-28T15:53:22.434Z,7.30
2022-11-28T15:56:15.655Z,7.30
2022-11-28T15:58:47.836Z,7.20
2022-11-28T16:01:30.795Z,7.20
2022-11-28T16:04:17.054Z,7.20
2022-11-28T16:06:52.268Z,7.20
2022-11-28T16:09:35.700Z,7.10
2022-11-28T16:12:07.737Z,7.10
2022-11-28T16:14:37.628Z,7.00
2022-11-28T16:17:23.917Z,7.00
2022-11-28T16:19:55.805Z,7.00
2022-11-28T16:22:37.560Z,6.90
2022-11-28T16:25:37.427Z,6.80
2022-11-28T16:28:08.795Z,6.80
2022-11-28T16:30:44.818Z,6.70
2022-11-28T16:33:46.121Z,6.70
2022-11-28T16:36:45.923Z,6.70
2022-11-28T16:39:18.820Z,6.70
2022-11-28T16:42:09.423Z,6.60
2022-11-28T16:44:39.591Z,6.60
2022-11-28T16:47:22.902Z,6.70
2022-11-28T16:50:14.105Z,6.70
2022-11-28T16:52:55.166Z,6.60
2022-11-28T16:55:32.951Z,6.60
2022-11-28T16:58:11.710Z,6.60
2022-11-28T17:00:56.675Z,6.60
2022-11-28T17:03:53.784Z,6.60
2022-11-28T17:06:40.414Z,6.60
2022-11-28T17:09:14.089Z,6.60
2022-11-28T17:11:53.766Z,6.50
2022-11-28T17:14:24.833Z,6.50
2022-11-28T17:16:52.809Z,6.50
2022-11-28T17:19:30.741Z,6.50
2022-11-28T17:22:08.204Z,6.50
2022-11-28T17:24:40.002Z,6.50
2022-11-28T17:27:15.420Z,6.40
2022-11-28T17:29:44.621Z,6.30
2022-11-28T17:32:16.579Z,6.40
2022-11-28T17:34:46.240Z,6.40
2022-11-28T17:37:14.802Z,6.30
2022-11-28T17:40:04.972Z,6.30
2022-11-28T17:42:33.772Z,6.30
2022-11-28T17:45:04.736Z,6.30
2022-11-28T17:47:35.941Z,6.30
2022-11-28T17:50:05.243Z,6.30
2022-11-28T17:52:37.011Z,6.40
2022-11-28T17:55:10.491Z,6.30
2022-11-28T17:58:00.109Z,6.30
2022-11-28T18:00:31.427Z,6.30
2022-11-28T18:03:01.525Z,6.30
2022-11-28T18:05:31.524Z,6.30
2022-11-28T18:07:59.468Z,6.20
2022-11-28T18:10:28.040Z,6.30
2022-11-28T18:12:57.131Z,6.20
2022-11-28T18:15:27.947Z,6.20
2022-11-28T18:17:57.931Z,6.20
2022-11-28T18:20:31.415Z,6.20
2022-11-28T18:23:02.750Z,6.20
2022-11-28T18:25:32.876Z,6.30
2022-11-28T18:28:03.364Z,6.30
2022-11-28T18:30:33.322Z,6.20
2022-11-28T18:33:06.382Z,6.30
2022-11-28T18:35:38.645Z,6.30
2022-11-28T18:38:13.931Z,6.20
2022-11-28T18:40:51.016Z,6.20
2022-11-28T18:43:19.313Z,6.20
2022-11-28T18:45:51.491Z,6.20
2022-11-28T18:48:26.165Z,6.20
2022-11-28T18:50:56.916Z,6.20
2022-11-28T18:53:28.936Z,6.20
2022-11-28T18:56:04.469Z,6.10
2022-11-28T18:58:38.821Z,6.10
2022-11-28T19:01:17.356Z,6.10
2022-11-28T19:03:54.343Z,6.10
2022-11-28T19:06:23.112Z,6.10
2022-11-28T19:08:58.404Z,6.10
2022-11-28T19:11:29.519Z,6.10
2022-11-28T19:13:59.323Z,6.00
2022-11-28T19:16:35.452Z,5.90
2022-11-28T19:19:05.820Z,5.90
2022-11-28T19:21:39.001Z,5.90
2022-11-28T19:24:09.269Z,5.90
2022-11-28T19:26:39.975Z,5.90
2022-11-28T19:29:10.789Z,5.90
2022-11-28T19:31:46.400Z,5.90
2022-11-28T19:34:19.010Z,5.90
2022-11-28T19:36:53.405Z,5.90
2022-11-28T19:39:23.812Z,5.90
2022-11-28T19:41:56.026Z,5.90
2022-11-28T19:44:27.071Z,5.80
2022-11-28T19:46:56.870Z,5.80
2022-11-28T19:49:27.356Z,5.80
2022-11-28T19:52:02.762Z,5.80
2022-11-28T19:54:33.200Z,5.80
2022-11-28T19:57:03.026Z,5.80
2022-11-28T19:59:34.174Z,5.90
2022-11-28T20:02:04.042Z,5.90
2022-11-28T20:04:33.867Z,5.90
2022-11-28T20:07:04.685Z,5.80
2022-11-28T20:09:36.304Z,5.90
2022-11-28T20:12:06.805Z,5.90
2022-11-28T20:14:37.159Z,5.90
2022-11-28T20:17:05.639Z,5.90
2022-11-28T20:19:37.917Z,5.90
2022-11-28T20:22:08.683Z,5.90
2022-11-28T20:24:39.947Z,5.80
2022-11-28T20:27:11.872Z,5.90
2022-11-28T20:29:42.642Z,5.90
2022-11-28T20:32:14.179Z,5.80
2022-11-28T20:34:47.371Z,5.80
2022-11-28T20:37:20.282Z,5.80
2022-11-28T20:39:50.919Z,5.80
2022-11-28T20:42:18.102Z,5.70
2022-11-28T20:44:45.495Z,5.70
2022-11-28T20:47:16.596Z,5.70
2022-11-28T20:49:44.520Z,5.70
2022-11-28T20:52:15.286Z,5.70
2022-11-28T20:54:47.554Z,5.60
2022-11-28T20:57:22.830Z,5.50
2022-11-28T21:02:41.600Z,5.50
2022-11-28T21:05:14.813Z,5.50
2022-11-28T21:07:42.079Z,5.50
2022-11-28T21:10:13.447Z,5.40
2022-11-28T21:12:46.950Z,5.40
2022-11-28T21:15:16.647Z,5.30
2022-11-28T21:17:45.346Z,5.40
2022-11-28T21:20:17.096Z,5.40
2022-11-28T21:22:45.030Z,5.40
2022-11-28T21:25:23.223Z,5.40
2022-11-28T21:27:51.597Z,5.50
2022-11-28T21:30:19.671Z,5.40
2022-11-28T21:32:47.622Z,5.50
2022-11-28T21:35:20.073Z,5.40
2022-11-28T21:37:47.216Z,5.40
2022-11-28T21:40:18.047Z,5.50
2022-11-28T21:42:48.103Z,5.40
2022-11-28T21:45:17.006Z,5.50
2022-11-28T21:47:49.763Z,5.50
2022-11-28T21:50:22.175Z,5.50
2022-11-28T21:52:51.865Z,5.50
2022-11-28T21:55:25.032Z,5.60
2022-11-28T21:57:55.364Z,5.60
2022-11-28T22:00:52.001Z,5.50
2022-11-28T22:03:19.419Z,5.60
2022-11-28T22:05:48.889Z,5.50
2022-11-28T22:08:17.676Z,5.60
2022-11-28T22:10:47.689Z,5.50
2022-11-28T22:13:17.300Z,5.60
2022-11-28T22:15:44.805Z,5.50
2022-11-28T22:18:15.029Z,5.60
2022-11-28T22:20:50.247Z,5.60
2022-11-28T22:23:22.547Z,5.60
2022-11-28T22:25:56.083Z,5.70
2022-11-28T22:28:29.080Z,5.70
2022-11-28T22:30:58.931Z,5.70
2022-11-28T22:33:26.603Z,5.70
2022-11-28T22:35:58.198Z,5.70
2022-11-28T22:38:27.781Z,5.80
2022-11-28T22:40:59.410Z,5.70
2022-11-28T22:43:28.299Z,5.70
2022-11-28T22:46:01.867Z,5.70
2022-11-28T22:48:35.647Z,5.70
2022-11-28T22:51:20.097Z,5.70
2022-11-28T22:53:58.684Z,5.70
2022-11-28T22:56:34.264Z,5.70
2022-11-28T22:59:14.034Z,5.70
2022-11-28T23:01:44.604Z,5.70
2022-11-28T23:04:13.654Z,5.80
2022-11-28T23:06:47.188Z,5.80
2022-11-28T23:09:18.542Z,5.80
2022-11-28T23:11:46.861Z,5.80
2022-11-28T23:14:17.703Z,5.70
2022-11-28T23:16:49.625Z,5.70
2022-11-28T23:19:19.751Z,5.70
2022-11-28T23:21:49.567Z,5.70
2022-11-28T23:24:22.968Z,5.70
2022-11-28T23:26:56.781Z,5.60
2022-11-28T23:29:25.692Z,5.60
2022-11-28T23:31:57.291Z,5.60
2022-11-28T23:34:28.977Z,5.60
2022-11-28T23:36:57.589Z,5.60
2022-11-28T23:39:25.624Z,5.60
2022-11-28T23:42:07.978Z,5.60
2022-11-28T23:44:41.522Z,5.60
2022-11-28T23:47:13.461Z,5.50
2022-11-28T23:49:41.555Z,5.50
2022-11-28T23:52:12.421Z,5.50
2022-11-28T23:54:42.371Z,5.40
2022-11-28T23:57:12.410Z,5.40
2022-11-28T23:59:40.812Z,5.40
